sensor_id;sensor_type;location;lat;lon;timestamp;temperature;humidity
8888;DHT22;4480;52.370;9.748;2023-04-24T00:00:53;12.30;99.90
8888;DHT22;4480;52.370;9.748;2023-04-24T00:03:23;12.30;99.90
8888;DHT22;4480;52.370;9.748;2023-04-24T00:05:50;12.30;99.90
8888;DHT22;4480;52.370;9.748;2023-04-24T00:08:17;12.20;99.90
8888;DHT22;4480;52.370;9.748;2023-04-24T00:10:44;12.20;99.90
8888;DHT22;4480;52.370;9.748;2023-04-24T00:13:11;12.20;99.90
8888;DHT22;4480;52.370;9.748;2023-04-24T00:15:38;12.20;99.90
8888;DHT22;4480;52.370;9.748;2023-04-24T00:18:05;12.20;99.90
8888;DHT22;4480;52.370;9.748;2023-04-24T00:20:34;12.10;99.90
8888;DHT22;4480;52.370;9.748;2023-04-24T00:23:01;12.10;99.90
8888;DHT22;4480;52.370;9.748;2023-04-24T00:25:27;12.00;99.90
8888;DHT22;4480;52.370;9.748;2023-04-24T00:27:54;12.00;99.90
8888;DHT22;4480;52.370;9.748;2023-04-24T00:30:21;12.00;99.90
8888;DHT22;4480;52.370;9.748;2023-04-24T00:32:48;11.90;99.90
8888;DHT22;4480;52.370;9.748;2023-04-24T00:35:14;11.90;99.90
8888;DHT22;4480;52.370;9.748;2023-04-24T00:37:42;11.90;99.90
8888;DHT22;4480;52.370;9.748;2023-04-24T00:40:10;11.90;99.90
8888;DHT22;4480;52.370;9.748;2023-04-24T00:42:37;11.90;99.90
8888;DHT22;4480;52.370;9.748;2023-04-24T00:45:05;11.90;99.90
8888;DHT22;4480;52.370;9.748;2023-04-24T00:47:32;11.90;99.90
8888;DHT22;4480;52.370;9.748;2023-04-24T00:50:01;11.90;99.90
8888;DHT22;4480;52.370;9.748;2023-04-24T00:52:28;11.90;99.90
8888;DHT22;4480;52.370;9.748;2023-04-24T00:54:58;11.80;99.90
8888;DHT22;4480;52.370;9.748;2023-04-24T00:57:25;11.80;99.90
8888;DHT22;4480;52.370;9.748;2023-04-24T00:59:53;11.80;99.90
8888;DHT22;4480;52.370;9.748;2023-04-24T01:02:20;11.70;99.90
8888;DHT22;4480;52.370;9.748;2023-04-24T01:04:48;11.60;99.90
8888;DHT22;4480;52.370;9.748;2023-04-24T01:07:17;11.60;99.90
8888;DHT22;4480;52.370;9.748;2023-04-24T01:09:47;11.60;99.90
8888;DHT22;4480;52.370;9.748;2023-04-24T01:12:17;11.50;99.90
8888;DHT22;4480;52.370;9.748;2023-04-24T01:14:44;11.50;99.90
8888;DHT22;4480;52.370;9.748;2023-04-24T01:17:11;11.50;99.90
8888;DHT22;4480;52.370;9.748;2023-04-24T01:19:38;11.40;99.90
8888;DHT22;4480;52.370;9.748;2023-04-24T01:22:10;11.40;99.90
8888;DHT22;4480;52.370;9.748;2023-04-24T01:24:37;11.30;99.90
8888;DHT22;4480;52.370;9.748;2023-04-24T01:27:04;11.20;99.90
8888;DHT22;4480;52.370;9.748;2023-04-24T01:29:31;11.20;99.90
8888;DHT22;4480;52.370;9.748;2023-04-24T01:31:58;11.10;99.90
8888;DHT22;4480;52.370;9.748;2023-04-24T01:34:25;11.20;99.90
8888;DHT22;4480;52.370;9.748;2023-04-24T01:36:52;11.10;99.90
8888;DHT22;4480;52.370;9.748;2023-04-24T01:39:20;11.10;99.90
8888;DHT22;4480;52.370;9.748;2023-04-24T01:41:48;11.00;99.90
8888;DHT22;4480;52.370;9.748;2023-04-24T01:44:15;11.00;99.90
8888;DHT22;4480;52.370;9.748;2023-04-24T01:46:42;10.90;99.90
8888;DHT22;4480;52.370;9.748;2023-04-24T01:49:09;10.90;99.90
8888;DHT22;4480;52.370;9.748;2023-04-24T01:51:36;10.90;99.90
8888;DHT22;4480;52.370;9.748;2023-04-24T01:54:03;10.90;99.90
8888;DHT22;4480;52.370;9.748;2023-04-24T01:56:33;10.90;99.90
8888;DHT22;4480;52.370;9.748;2023-04-24T01:59:00;10.80;99.90
8888;DHT22;4480;52.370;9.748;2023-04-24T02:01:33;10.80;99.90
8888;DHT22;4480;52.370;9.748;2023-04-24T02:04:01;10.80;99.90
8888;DHT22;4480;52.370;9.748;2023-04-24T02:06:28;10.80;99.90
8888;DHT22;4480;52.370;9.748;2023-04-24T02:08:54;10.80;99.90
8888;DHT22;4480;52.370;9.748;2023-04-24T02:11:21;10.80;99.90
8888;DHT22;4480;52.370;9.748;2023-04-24T02:13:49;10.80;99.90
8888;DHT22;4480;52.370;9.748;2023-04-24T02:16:17;10.80;99.90
8888;DHT22;4480;52.370;9.748;2023-04-24T02:18:44;10.80;99.90
8888;DHT22;4480;52.370;9.748;2023-04-24T02:21:10;10.80;99.90
8888;DHT22;4480;52.370;9.748;2023-04-24T02:23:37;10.80;99.90
8888;DHT22;4480;52.370;9.748;2023-04-24T02:26:04;10.70;99.90
8888;DHT22;4480;52.370;9.748;2023-04-24T02:28:31;10.70;99.90
8888;DHT22;4480;52.370;9.748;2023-04-24T02:30:59;10.70;99.90
8888;DHT22;4480;52.370;9.748;2023-04-24T02:33:26;10.70;99.90
8888;DHT22;4480;52.370;9.748;2023-04-24T02:35:53;10.70;99.90
8888;DHT22;4480;52.370;9.748;2023-04-24T02:38:19;10.70;99.90
8888;DHT22;4480;52.370;9.748;2023-04-24T02:40:46;10.60;99.90
8888;DHT22;4480;52.370;9.748;2023-04-24T02:43:13;10.60;99.90
8888;DHT22;4480;52.370;9.748;2023-04-24T02:45:40;10.60;99.90
8888;DHT22;4480;52.370;9.748;2023-04-24T02:48:08;10.60;99.90
8888;DHT22;4480;52.370;9.748;2023-04-24T02:50:35;10.50;99.90
8888;DHT22;4480;52.370;9.748;2023-04-24T02:53:01;10.50;99.90
8888;DHT22;4480;52.370;9.748;2023-04-24T02:55:28;10.40;99.90
8888;DHT22;4480;52.370;9.748;2023-04-24T02:57:55;10.40;99.90
8888;DHT22;4480;52.370;9.748;2023-04-24T03:00:22;10.40;99.90
8888;DHT22;4480;52.370;9.748;2023-04-24T03:02:49;10.40;99.90
8888;DHT22;4480;52.370;9.748;2023-04-24T03:05:17;10.40;99.90
8888;DHT22;4480;52.370;9.748;2023-04-24T03:07:44;10.40;99.90
8888;DHT22;4480;52.370;9.748;2023-04-24T03:10:11;10.40;99.90
8888;DHT22;4480;52.370;9.748;2023-04-24T03:12:38;10.50;99.90
8888;DHT22;4480;52.370;9.748;2023-04-24T03:15:06;10.50;99.90
8888;DHT22;4480;52.370;9.748;2023-04-24T03:17:33;10.50;99.90
8888;DHT22;4480;52.370;9.748;2023-04-24T03:20:00;10.50;99.90
8888;DHT22;4480;52.370;9.748;2023-04-24T03:22:29;10.40;99.90
8888;DHT22;4480;52.370;9.748;2023-04-24T03:24:58;10.50;99.90
8888;DHT22;4480;52.370;9.748;2023-04-24T03:27:24;10.50;99.90
8888;DHT22;4480;52.370;9.748;2023-04-24T03:29:51;10.60;99.90
8888;DHT22;4480;52.370;9.748;2023-04-24T03:32:20;10.60;99.90
8888;DHT22;4480;52.370;9.748;2023-04-24T03:34:47;10.60;99.90
8888;DHT22;4480;52.370;9.748;2023-04-24T03:37:14;10.60;99.90
8888;DHT22;4480;52.370;9.748;2023-04-24T03:39:42;10.50;99.90
8888;DHT22;4480;52.370;9.748;2023-04-24T03:42:09;10.50;99.90
8888;DHT22;4480;52.370;9.748;2023-04-24T03:44:36;10.50;99.90
8888;DHT22;4480;52.370;9.748;2023-04-24T03:47:03;10.50;99.90
8888;DHT22;4480;52.370;9.748;2023-04-24T03:49:30;10.40;99.90
8888;DHT22;4480;52.370;9.748;2023-04-24T03:51:56;10.40;99.90
8888;DHT22;4480;52.370;9.748;2023-04-24T03:54:23;10.40;99.90
8888;DHT22;4480;52.370;9.748;2023-04-24T03:56:51;10.40;99.90
8888;DHT22;4480;52.370;9.748;2023-04-24T03:59:18;10.40;99.90
8888;DHT22;4480;52.370;9.748;2023-04-24T04:01:45;10.30;99.90
8888;DHT22;4480;52.370;9.748;2023-04-24T04:04:12;10.30;99.90
8888;DHT22;4480;52.370;9.748;2023-04-24T04:06:39;10.30;99.90
8888;DHT22;4480;52.370;9.748;2023-04-24T04:11:35;10.20;99.90
8888;DHT22;4480;52.370;9.748;2023-04-24T04:14:01;10.30;99.90
8888;DHT22;4480;52.370;9.748;2023-04-24T04:16:28;10.30;99.90
8888;DHT22;4480;52.370;9.748;2023-04-24T04:18:55;10.30;99.90
8888;DHT22;4480;52.370;9.748;2023-04-24T04:21:22;10.30;99.90
8888;DHT22;4480;52.370;9.748;2023-04-24T04:23:49;10.30;99.90
8888;DHT22;4480;52.370;9.748;2023-04-24T04:26:16;10.40;99.90
8888;DHT22;4480;52.370;9.748;2023-04-24T04:28:46;10.40;99.90
8888;DHT22;4480;52.370;9.748;2023-04-24T04:31:13;10.60;99.90
8888;DHT22;4480;52.370;9.748;2023-04-24T04:33:39;10.60;99.90
8888;DHT22;4480;52.370;9.748;2023-04-24T04:36:06;10.70;99.90
8888;DHT22;4480;52.370;9.748;2023-04-24T04:38:34;10.60;99.90
8888;DHT22;4480;52.370;9.748;2023-04-24T04:41:00;10.60;99.90
8888;DHT22;4480;52.370;9.748;2023-04-24T04:43:27;10.70;99.90
8888;DHT22;4480;52.370;9.748;2023-04-24T04:45:59;10.70;99.90
8888;DHT22;4480;52.370;9.748;2023-04-24T04:48:26;10.70;99.90
8888;DHT22;4480;52.370;9.748;2023-04-24T04:50:53;10.60;99.90
8888;DHT22;4480;52.370;9.748;2023-04-24T04:53:20;10.60;99.90
8888;DHT22;4480;52.370;9.748;2023-04-24T04:55:47;10.60;99.90
8888;DHT22;4480;52.370;9.748;2023-04-24T04:58:14;10.70;99.90
8888;DHT22;4480;52.370;9.748;2023-04-24T05:00:40;10.80;99.90
8888;DHT22;4480;52.370;9.748;2023-04-24T05:03:09;10.90;99.90
8888;DHT22;4480;52.370;9.748;2023-04-24T05:05:36;10.90;99.90
8888;DHT22;4480;52.370;9.748;2023-04-24T05:08:06;10.90;99.90
8888;DHT22;4480;52.370;9.748;2023-04-24T05:10:32;11.10;99.90
8888;DHT22;4480;52.370;9.748;2023-04-24T05:13:02;11.20;99.90
8888;DHT22;4480;52.370;9.748;2023-04-24T05:15:29;11.40;99.90
8888;DHT22;4480;52.370;9.748;2023-04-24T05:17:55;11.60;99.90
8888;DHT22;4480;52.370;9.748;2023-04-24T05:20:24;11.70;99.90
8888;DHT22;4480;52.370;9.748;2023-04-24T05:22:50;11.80;99.90
8888;DHT22;4480;52.370;9.748;2023-04-24T05:25:17;11.70;99.90
8888;DHT22;4480;52.370;9.748;2023-04-24T05:27:45;11.70;99.90
8888;DHT22;4480;52.370;9.748;2023-04-24T05:30:12;11.70;99.90
8888;DHT22;4480;52.370;9.748;2023-04-24T05:32:39;11.70;99.90
8888;DHT22;4480;52.370;9.748;2023-04-24T05:35:06;11.80;99.90
8888;DHT22;4480;52.370;9.748;2023-04-24T05:37:35;11.80;99.90
8888;DHT22;4480;52.370;9.748;2023-04-24T05:40:02;11.90;99.90
8888;DHT22;4480;52.370;9.748;2023-04-24T05:42:30;11.90;99.90
8888;DHT22;4480;52.370;9.748;2023-04-24T05:44:57;12.00;99.90
8888;DHT22;4480;52.370;9.748;2023-04-24T05:47:24;12.10;99.90
8888;DHT22;4480;52.370;9.748;2023-04-24T05:49:52;12.10;99.90
8888;DHT22;4480;52.370;9.748;2023-04-24T05:52:19;12.20;99.90
8888;DHT22;4480;52.370;9.748;2023-04-24T05:54:49;12.20;99.90
8888;DHT22;4480;52.370;9.748;2023-04-24T05:57:18;12.20;99.90
8888;DHT22;4480;52.370;9.748;2023-04-24T05:59:45;12.30;99.90
8888;DHT22;4480;52.370;9.748;2023-04-24T06:02:12;12.40;99.90
8888;DHT22;4480;52.370;9.748;2023-04-24T06:04:39;12.50;99.90
8888;DHT22;4480;52.370;9.748;2023-04-24T06:07:05;12.60;99.90
8888;DHT22;4480;52.370;9.748;2023-04-24T06:09:32;12.60;99.90
8888;DHT22;4480;52.370;9.748;2023-04-24T06:12:00;12.60;99.90
8888;DHT22;4480;52.370;9.748;2023-04-24T06:14:28;12.60;99.90
8888;DHT22;4480;52.370;9.748;2023-04-24T06:16:54;12.50;99.90
8888;DHT22;4480;52.370;9.748;2023-04-24T06:19:21;12.40;99.90
8888;DHT22;4480;52.370;9.748;2023-04-24T06:21:48;12.40;99.90
8888;DHT22;4480;52.370;9.748;2023-04-24T06:24:15;12.30;98.20
8888;DHT22;4480;52.370;9.748;2023-04-24T06:26:42;12.30;98.10
8888;DHT22;4480;52.370;9.748;2023-04-24T06:29:10;12.20;97.10
8888;DHT22;4480;52.370;9.748;2023-04-24T06:31:37;12.20;96.60
8888;DHT22;4480;52.370;9.748;2023-04-24T06:34:04;12.20;95.50
8888;DHT22;4480;52.370;9.748;2023-04-24T06:36:31;12.10;94.70
8888;DHT22;4480;52.370;9.748;2023-04-24T06:38:59;12.10;94.50
8888;DHT22;4480;52.370;9.748;2023-04-24T06:41:26;12.20;94.40
8888;DHT22;4480;52.370;9.748;2023-04-24T06:43:53;12.20;94.50
8888;DHT22;4480;52.370;9.748;2023-04-24T06:46:21;12.30;94.40
8888;DHT22;4480;52.370;9.748;2023-04-24T06:48:49;12.40;93.70
8888;DHT22;4480;52.370;9.748;2023-04-24T06:51:16;12.50;93.30
8888;DHT22;4480;52.370;9.748;2023-04-24T06:53:44;12.50;92.80
8888;DHT22;4480;52.370;9.748;2023-04-24T06:56:10;12.70;92.30
8888;DHT22;4480;52.370;9.748;2023-04-24T06:58:37;12.70;91.80
8888;DHT22;4480;52.370;9.748;2023-04-24T07:01:04;12.80;91.40
8888;DHT22;4480;52.370;9.748;2023-04-24T07:03:33;12.90;91.10
8888;DHT22;4480;52.370;9.748;2023-04-24T07:05:59;12.90;90.50
8888;DHT22;4480;52.370;9.748;2023-04-24T07:08:26;13.00;90.30
8888;DHT22;4480;52.370;9.748;2023-04-24T07:10:53;13.00;89.90
8888;DHT22;4480;52.370;9.748;2023-04-24T07:13:21;13.10;89.40
8888;DHT22;4480;52.370;9.748;2023-04-24T07:15:48;13.20;88.80
8888;DHT22;4480;52.370;9.748;2023-04-24T07:18:16;13.20;87.20
8888;DHT22;4480;52.370;9.748;2023-04-24T07:20:44;13.20;86.80
8888;DHT22;4480;52.370;9.748;2023-04-24T07:23:11;13.30;86.70
8888;DHT22;4480;52.370;9.748;2023-04-24T07:25:38;13.40;85.50
8888;DHT22;4480;52.370;9.748;2023-04-24T07:28:05;13.60;83.30
8888;DHT22;4480;52.370;9.748;2023-04-24T07:30:32;13.70;81.40
8888;DHT22;4480;52.370;9.748;2023-04-24T07:32:59;13.80;78.90
8888;DHT22;4480;52.370;9.748;2023-04-24T07:35:26;13.70;77.10
8888;DHT22;4480;52.370;9.748;2023-04-24T07:37:54;13.70;76.80
8888;DHT22;4480;52.370;9.748;2023-04-24T07:40:21;13.70;76.30
8888;DHT22;4480;52.370;9.748;2023-04-24T07:42:48;13.80;75.10
8888;DHT22;4480;52.370;9.748;2023-04-24T07:45:15;13.90;74.10
8888;DHT22;4480;52.370;9.748;2023-04-24T07:47:42;14.20;72.30
8888;DHT22;4480;52.370;9.748;2023-04-24T07:50:11;14.40;70.10
8888;DHT22;4480;52.370;9.748;2023-04-24T07:52:38;14.40;67.90
8888;DHT22;4480;52.370;9.748;2023-04-24T07:55:07;14.50;67.20
8888;DHT22;4480;52.370;9.748;2023-04-24T07:57:34;14.40;67.00
8888;DHT22;4480;52.370;9.748;2023-04-24T08:00:01;14.50;67.50
8888;DHT22;4480;52.370;9.748;2023-04-24T08:02:27;14.70;66.70
8888;DHT22;4480;52.370;9.748;2023-04-24T08:04:54;14.70;65.90
8888;DHT22;4480;52.370;9.748;2023-04-24T08:07:22;14.60;66.00
8888;DHT22;4480;52.370;9.748;2023-04-24T08:09:49;14.60;66.40
8888;DHT22;4480;52.370;9.748;2023-04-24T08:12:17;14.50;66.50
8888;DHT22;4480;52.370;9.748;2023-04-24T08:14:44;14.40;66.70
8888;DHT22;4480;52.370;9.748;2023-04-24T08:17:11;14.40;66.90
8888;DHT22;4480;52.370;9.748;2023-04-24T08:19:40;14.30;67.10
8888;DHT22;4480;52.370;9.748;2023-04-24T08:22:08;14.20;67.00
8888;DHT22;4480;52.370;9.748;2023-04-24T08:24:35;14.20;67.30
8888;DHT22;4480;52.370;9.748;2023-04-24T08:27:02;14.10;67.10
8888;DHT22;4480;52.370;9.748;2023-04-24T08:29:30;14.00;67.00
8888;DHT22;4480;52.370;9.748;2023-04-24T08:31:56;14.00;66.60
8888;DHT22;4480;52.370;9.748;2023-04-24T08:34:23;14.10;66.80
8888;DHT22;4480;52.370;9.748;2023-04-24T08:36:50;14.30;66.30
8888;DHT22;4480;52.370;9.748;2023-04-24T08:39:17;14.30;65.00
8888;DHT22;4480;52.370;9.748;2023-04-24T08:41:44;14.20;64.80
8888;DHT22;4480;52.370;9.748;2023-04-24T08:44:12;14.20;64.60
8888;DHT22;4480;52.370;9.748;2023-04-24T08:46:43;14.30;64.50
8888;DHT22;4480;52.370;9.748;2023-04-24T08:49:11;14.50;63.30
8888;DHT22;4480;52.370;9.748;2023-04-24T08:51:39;14.70;62.20
8888;DHT22;4480;52.370;9.748;2023-04-24T08:54:06;14.80;61.30
8888;DHT22;4480;52.370;9.748;2023-04-24T08:56:33;14.80;60.90
8888;DHT22;4480;52.370;9.748;2023-04-24T08:59:03;14.80;60.90
8888;DHT22;4480;52.370;9.748;2023-04-24T09:01:32;14.90;60.70
8888;DHT22;4480;52.370;9.748;2023-04-24T09:04:01;14.80;59.70
8888;DHT22;4480;52.370;9.748;2023-04-24T09:06:29;14.80;59.80
8888;DHT22;4480;52.370;9.748;2023-04-24T09:09:00;14.90;59.60
8888;DHT22;4480;52.370;9.748;2023-04-24T09:11:27;14.90;59.40
8888;DHT22;4480;52.370;9.748;2023-04-24T09:13:54;15.20;59.00
8888;DHT22;4480;52.370;9.748;2023-04-24T09:16:22;15.40;58.10
8888;DHT22;4480;52.370;9.748;2023-04-24T09:18:50;15.70;56.60
8888;DHT22;4480;52.370;9.748;2023-04-24T09:21:20;16.00;55.70
8888;DHT22;4480;52.370;9.748;2023-04-24T09:23:57;16.10;54.80
8888;DHT22;4480;52.370;9.748;2023-04-24T09:26:25;15.90;54.60
8888;DHT22;4480;52.370;9.748;2023-04-24T09:28:53;15.70;54.60
8888;DHT22;4480;52.370;9.748;2023-04-24T09:31:20;15.50;55.60
8888;DHT22;4480;52.370;9.748;2023-04-24T09:33:54;15.30;55.60
8888;DHT22;4480;52.370;9.748;2023-04-24T09:36:28;15.10;55.80
8888;DHT22;4480;52.370;9.748;2023-04-24T09:38:58;14.90;56.30
8888;DHT22;4480;52.370;9.748;2023-04-24T09:41:25;14.70;56.60
8888;DHT22;4480;52.370;9.748;2023-04-24T09:43:53;14.50;57.10
8888;DHT22;4480;52.370;9.748;2023-04-24T09:46:20;14.40;57.50
8888;DHT22;4480;52.370;9.748;2023-04-24T09:48:47;14.40;57.90
8888;DHT22;4480;52.370;9.748;2023-04-24T09:51:14;14.50;58.20
8888;DHT22;4480;52.370;9.748;2023-04-24T09:53:47;14.60;58.00
8888;DHT22;4480;52.370;9.748;2023-04-24T09:56:13;14.80;57.90
8888;DHT22;4480;52.370;9.748;2023-04-24T09:58:40;15.00;57.60
8888;DHT22;4480;52.370;9.748;2023-04-24T10:01:07;15.10;57.20
8888;DHT22;4480;52.370;9.748;2023-04-24T10:03:34;15.10;57.20
8888;DHT22;4480;52.370;9.748;2023-04-24T10:06:02;15.00;57.10
8888;DHT22;4480;52.370;9.748;2023-04-24T10:08:34;14.70;57.30
8888;DHT22;4480;52.370;9.748;2023-04-24T10:11:03;14.50;57.90
8888;DHT22;4480;52.370;9.748;2023-04-24T10:13:30;14.30;58.30
8888;DHT22;4480;52.370;9.748;2023-04-24T10:15:58;14.20;58.70
8888;DHT22;4480;52.370;9.748;2023-04-24T10:18:27;14.20;59.00
8888;DHT22;4480;52.370;9.748;2023-04-24T10:20:54;14.20;59.00
8888;DHT22;4480;52.370;9.748;2023-04-24T10:23:21;14.30;58.90
8888;DHT22;4480;52.370;9.748;2023-04-24T10:25:49;14.30;58.90
8888;DHT22;4480;52.370;9.748;2023-04-24T10:28:19;14.40;59.10
8888;DHT22;4480;52.370;9.748;2023-04-24T10:30:46;14.40;59.10
8888;DHT22;4480;52.370;9.748;2023-04-24T10:33:14;14.30;59.10
8888;DHT22;4480;52.370;9.748;2023-04-24T10:35:43;14.30;59.20
8888;DHT22;4480;52.370;9.748;2023-04-24T10:38:12;14.30;59.30
8888;DHT22;4480;52.370;9.748;2023-04-24T10:40:39;14.20;59.40
8888;DHT22;4480;52.370;9.748;2023-04-24T10:43:07;14.10;59.80
8888;DHT22;4480;52.370;9.748;2023-04-24T10:45:38;14.00;60.00
8888;DHT22;4480;52.370;9.748;2023-04-24T10:48:06;13.90;60.90
8888;DHT22;4480;52.370;9.748;2023-04-24T10:50:44;13.70;61.50
8888;DHT22;4480;52.370;9.748;2023-04-24T10:53:16;13.60;62.20
8888;DHT22;4480;52.370;9.748;2023-04-24T10:55:44;13.50;62.80
8888;DHT22;4480;52.370;9.748;2023-04-24T10:58:11;13.40;63.30
8888;DHT22;4480;52.370;9.748;2023-04-24T11:00:40;13.30;63.60
8888;DHT22;4480;52.370;9.748;2023-04-24T11:03:23;13.40;64.10
8888;DHT22;4480;52.370;9.748;2023-04-24T11:05:53;13.40;64.10
8888;DHT22;4480;52.370;9.748;2023-04-24T11:08:28;13.40;64.10
8888;DHT22;4480;52.370;9.748;2023-04-24T11:11:00;13.50;64.10
8888;DHT22;4480;52.370;9.748;2023-04-24T11:16:27;13.70;63.80
8888;DHT22;4480;52.370;9.748;2023-04-24T11:19:01;13.60;63.40
8888;DHT22;4480;52.370;9.748;2023-04-24T11:21:32;13.40;63.40
8888;DHT22;4480;52.370;9.748;2023-04-24T11:26:41;13.30;64.20
8888;DHT22;4480;52.370;9.748;2023-04-24T11:29:08;13.20;64.50
8888;DHT22;4480;52.370;9.748;2023-04-24T11:31:37;13.20;64.70
8888;DHT22;4480;52.370;9.748;2023-04-24T11:34:08;13.30;64.90
8888;DHT22;4480;52.370;9.748;2023-04-24T11:36:35;13.40;64.40
8888;DHT22;4480;52.370;9.748;2023-04-24T11:39:02;13.50;64.00
8888;DHT22;4480;52.370;9.748;2023-04-24T11:41:29;13.80;63.20
8888;DHT22;4480;52.370;9.748;2023-04-24T11:43:57;14.00;62.50
8888;DHT22;4480;52.370;9.748;2023-04-24T11:46:27;14.10;61.80
8888;DHT22;4480;52.370;9.748;2023-04-24T11:48:56;14.10;61.70
8888;DHT22;4480;52.370;9.748;2023-04-24T11:51:23;14.00;61.60
8888;DHT22;4480;52.370;9.748;2023-04-24T11:53:51;13.90;61.60
8888;DHT22;4480;52.370;9.748;2023-04-24T11:56:18;13.80;61.60
8888;DHT22;4480;52.370;9.748;2023-04-24T11:58:45;13.70;61.70
8888;DHT22;4480;52.370;9.748;2023-04-24T12:01:12;13.60;62.10
8888;DHT22;4480;52.370;9.748;2023-04-24T12:03:39;13.60;62.40
8888;DHT22;4480;52.370;9.748;2023-04-24T12:06:11;13.60;62.30
8888;DHT22;4480;52.370;9.748;2023-04-24T12:08:38;13.70;62.20
8888;DHT22;4480;52.370;9.748;2023-04-24T12:11:06;13.80;62.00
8888;DHT22;4480;52.370;9.748;2023-04-24T12:13:34;13.80;62.00
8888;DHT22;4480;52.370;9.748;2023-04-24T12:16:02;13.80;62.10
8888;DHT22;4480;52.370;9.748;2023-04-24T12:18:30;13.80;62.00
8888;DHT22;4480;52.370;9.748;2023-04-24T12:21:17;13.70;61.60
8888;DHT22;4480;52.370;9.748;2023-04-24T12:23:44;13.60;61.70
8888;DHT22;4480;52.370;9.748;2023-04-24T12:26:12;13.50;62.00
8888;DHT22;4480;52.370;9.748;2023-04-24T12:28:39;13.50;62.50
8888;DHT22;4480;52.370;9.748;2023-04-24T12:31:06;13.60;62.40
8888;DHT22;4480;52.370;9.748;2023-04-24T12:33:35;13.70;62.20
8888;DHT22;4480;52.370;9.748;2023-04-24T12:36:02;14.00;61.90
8888;DHT22;4480;52.370;9.748;2023-04-24T12:38:33;14.30;62.00
8888;DHT22;4480;52.370;9.748;2023-04-24T12:41:07;14.70;60.80
8888;DHT22;4480;52.370;9.748;2023-04-24T12:43:34;14.90;60.50
8888;DHT22;4480;52.370;9.748;2023-04-24T12:46:01;14.90;59.50
8888;DHT22;4480;52.370;9.748;2023-04-24T12:48:29;15.10;59.40
8888;DHT22;4480;52.370;9.748;2023-04-24T12:50:57;15.20;59.00
8888;DHT22;4480;52.370;9.748;2023-04-24T12:53:27;15.20;58.40
8888;DHT22;4480;52.370;9.748;2023-04-24T12:55:56;15.10;58.40
8888;DHT22;4480;52.370;9.748;2023-04-24T12:58:23;14.90;58.50
8888;DHT22;4480;52.370;9.748;2023-04-24T13:00:50;14.70;59.00
8888;DHT22;4480;52.370;9.748;2023-04-24T13:03:19;14.40;59.50
8888;DHT22;4480;52.370;9.748;2023-04-24T13:05:48;14.10;60.40
8888;DHT22;4480;52.370;9.748;2023-04-24T13:08:14;13.80;61.60
8888;DHT22;4480;52.370;9.748;2023-04-24T13:10:41;13.50;63.00
8888;DHT22;4480;52.370;9.748;2023-04-24T13:13:09;13.40;64.30
8888;DHT22;4480;52.370;9.748;2023-04-24T13:15:36;13.10;65.40
8888;DHT22;4480;52.370;9.748;2023-04-24T13:18:03;12.90;67.40
8888;DHT22;4480;52.370;9.748;2023-04-24T13:20:30;12.70;70.00
8888;DHT22;4480;52.370;9.748;2023-04-24T13:22:57;12.50;72.40
8888;DHT22;4480;52.370;9.748;2023-04-24T13:25:24;12.40;74.40
8888;DHT22;4480;52.370;9.748;2023-04-24T13:27:51;12.30;76.40
8888;DHT22;4480;52.370;9.748;2023-04-24T13:30:20;12.20;77.90
8888;DHT22;4480;52.370;9.748;2023-04-24T13:32:46;12.10;78.90
8888;DHT22;4480;52.370;9.748;2023-04-24T13:35:13;12.10;79.70
8888;DHT22;4480;52.370;9.748;2023-04-24T13:37:40;12.00;81.40
8888;DHT22;4480;52.370;9.748;2023-04-24T13:40:08;11.90;82.80
8888;DHT22;4480;52.370;9.748;2023-04-24T13:42:35;11.80;84.00
8888;DHT22;4480;52.370;9.748;2023-04-24T13:45:01;11.80;85.70
8888;DHT22;4480;52.370;9.748;2023-04-24T13:47:31;11.70;87.20
8888;DHT22;4480;52.370;9.748;2023-04-24T13:49:58;11.50;90.70
8888;DHT22;4480;52.370;9.748;2023-04-24T13:52:24;11.30;92.90
8888;DHT22;4480;52.370;9.748;2023-04-24T13:54:51;11.10;94.40
8888;DHT22;4480;52.370;9.748;2023-04-24T13:57:18;11.00;96.20
8888;DHT22;4480;52.370;9.748;2023-04-24T13:59:45;10.90;97.10
8888;DHT22;4480;52.370;9.748;2023-04-24T14:02:12;10.90;97.60
8888;DHT22;4480;52.370;9.748;2023-04-24T14:04:40;10.80;97.70
8888;DHT22;4480;52.370;9.748;2023-04-24T14:07:07;10.60;99.20
8888;DHT22;4480;52.370;9.748;2023-04-24T14:09:34;10.40;99.80
8888;DHT22;4480;52.370;9.748;2023-04-24T14:12:01;10.30;99.90
8888;DHT22;4480;52.370;9.748;2023-04-24T14:14:28;10.10;99.90
8888;DHT22;4480;52.370;9.748;2023-04-24T14:16:56;10.00;99.90
8888;DHT22;4480;52.370;9.748;2023-04-24T14:19:23;9.80;99.90
8888;DHT22;4480;52.370;9.748;2023-04-24T14:21:52;9.70;99.90
8888;DHT22;4480;52.370;9.748;2023-04-24T14:24:19;9.60;99.90
8888;DHT22;4480;52.370;9.748;2023-04-24T14:26:46;9.60;99.90
8888;DHT22;4480;52.370;9.748;2023-04-24T14:29:12;9.50;99.90
8888;DHT22;4480;52.370;9.748;2023-04-24T14:31:39;9.40;99.90
8888;DHT22;4480;52.370;9.748;2023-04-24T14:34:06;9.20;99.90
8888;DHT22;4480;52.370;9.748;2023-04-24T14:36:33;9.10;99.90
8888;DHT22;4480;52.370;9.748;2023-04-24T14:39:01;9.10;99.90
8888;DHT22;4480;52.370;9.748;2023-04-24T14:41:32;9.00;99.90
8888;DHT22;4480;52.370;9.748;2023-04-24T14:44:01;8.90;99.90
8888;DHT22;4480;52.370;9.748;2023-04-24T14:46:28;8.90;99.90
8888;DHT22;4480;52.370;9.748;2023-04-24T14:48:55;8.80;99.90
8888;DHT22;4480;52.370;9.748;2023-04-24T14:51:22;8.70;99.90
8888;DHT22;4480;52.370;9.748;2023-04-24T14:53:49;8.70;99.90
8888;DHT22;4480;52.370;9.748;2023-04-24T14:56:17;8.70;99.90
8888;DHT22;4480;52.370;9.748;2023-04-24T14:58:44;8.70;99.90
8888;DHT22;4480;52.370;9.748;2023-04-24T15:01:11;8.80;99.90
8888;DHT22;4480;52.370;9.748;2023-04-24T15:03:37;8.80;99.90
8888;DHT22;4480;52.370;9.748;2023-04-24T15:06:05;8.90;99.90
8888;DHT22;4480;52.370;9.748;2023-04-24T15:08:32;8.90;99.90
8888;DHT22;4480;52.370;9.748;2023-04-24T15:10:58;8.90;99.90
8888;DHT22;4480;52.370;9.748;2023-04-24T15:13:27;8.90;99.90
8888;DHT22;4480;52.370;9.748;2023-04-24T15:15:53;9.00;99.90
8888;DHT22;4480;52.370;9.748;2023-04-24T15:18:20;9.00;99.90
8888;DHT22;4480;52.370;9.748;2023-04-24T15:20:47;9.00;99.90
8888;DHT22;4480;52.370;9.748;2023-04-24T15:23:14;9.00;99.90
8888;DHT22;4480;52.370;9.748;2023-04-24T15:25:41;9.00;99.90
8888;DHT22;4480;52.370;9.748;2023-04-24T15:28:09;8.90;99.90
8888;DHT22;4480;52.370;9.748;2023-04-24T15:30:37;8.90;99.90
8888;DHT22;4480;52.370;9.748;2023-04-24T15:33:04;9.00;99.90
8888;DHT22;4480;52.370;9.748;2023-04-24T15:35:31;9.10;99.90
8888;DHT22;4480;52.370;9.748;2023-04-24T15:37:57;9.20;99.90
8888;DHT22;4480;52.370;9.748;2023-04-24T15:40:24;9.40;99.90
8888;DHT22;4480;52.370;9.748;2023-04-24T15:42:51;9.40;99.90
8888;DHT22;4480;52.370;9.748;2023-04-24T15:45:18;9.50;99.90
8888;DHT22;4480;52.370;9.748;2023-04-24T15:47:46;9.50;99.90
8888;DHT22;4480;52.370;9.748;2023-04-24T15:50:13;9.60;99.90
8888;DHT22;4480;52.370;9.748;2023-04-24T15:52:41;9.60;99.90
8888;DHT22;4480;52.370;9.748;2023-04-24T15:55:09;9.60;99.90
8888;DHT22;4480;52.370;9.748;2023-04-24T15:57:36;9.60;99.90
8888;DHT22;4480;52.370;9.748;2023-04-24T16:00:04;9.60;99.90
8888;DHT22;4480;52.370;9.748;2023-04-24T16:02:33;9.60;99.90
8888;DHT22;4480;52.370;9.748;2023-04-24T16:05:01;9.60;99.90
8888;DHT22;4480;52.370;9.748;2023-04-24T16:07:28;9.70;99.90
8888;DHT22;4480;52.370;9.748;2023-04-24T16:09:55;9.70;99.90
8888;DHT22;4480;52.370;9.748;2023-04-24T16:12:22;9.70;99.90
8888;DHT22;4480;52.370;9.748;2023-04-24T16:14:52;9.70;99.90